Time;durP1;ratioP1;P1;durP2;ratioP2;P2;SDS_P1;SDS_P2;PMS_P1;PMS_P2;Temp;Humidity;BMP_temperature;BMP_pressure;BME280_temperature;BME280_humidity;BME280_pressure;Samples;Min_cycle;Max_cycle;Signal;HPM_P1;HPM_P2
2022/10/14 00:01:30;;;;;;;2.60;1.50;;;;;;;;;;5014682;28;20095;-62
2022/10/14 00:03:55;;;;;;;3.22;1.58;;;;;;;;;;5015053;28;20473;-63
2022/10/14 00:06:23;;;;;;;4.50;1.52;;;;;;;;;;5014990;28;20121;-63
2022/10/14 00:08:48;;;;;;;3.25;1.42;;;;;;;;;;5013712;28;20188;-63
2022/10/14 00:11:26;;;;;;;3.83;1.60;;;;;;;;;;5013712;28;20537;-62
2022/10/14 00:13:57;;;;;;;3.10;1.67;;;;;;;;;;5011023;28;20045;-62
2022/10/14 00:16:28;;;;;;;5.07;1.90;;;;;;;;;;5013608;28;20041;-63
2022/10/14 00:18:54;;;;;;;3.13;1.63;;;;;;;;;;5001052;28;20053;-63
2022/10/14 00:21:19;;;;;;;3.33;1.67;;;;;;;;;;5008200;28;20034;-63
2022/10/14 00:23:45;;;;;;;3.05;1.60;;;;;;;;;;5014415;28;20116;-63
2022/10/14 00:26:16;;;;;;;2.88;1.45;;;;;;;;;;5012085;28;20044;-63
2022/10/14 00:28:41;;;;;;;3.33;1.80;;;;;;;;;;5009106;28;20117;-63
2022/10/14 00:31:07;;;;;;;2.97;1.50;;;;;;;;;;5004731;28;20167;-63
2022/10/14 00:33:32;;;;;;;3.85;1.95;;;;;;;;;;5015061;28;20056;-63
2022/10/14 00:36:00;;;;;;;2.92;1.85;;;;;;;;;;5014064;28;20034;-63
2022/10/14 00:38:26;;;;;;;5.70;1.63;;;;;;;;;;5002463;28;20034;-63
2022/10/14 00:40:52;;;;;;;3.50;1.70;;;;;;;;;;5008131;28;20465;-63
2022/10/14 00:43:19;;;;;;;3.38;1.65;;;;;;;;;;5009525;28;20034;-63
2022/10/14 00:45:44;;;;;;;3.38;1.60;;;;;;;;;;5012939;28;20056;-63
2022/10/14 00:48:11;;;;;;;13.90;1.92;;;;;;;;;;5012033;28;20367;-62
2022/10/14 00:50:38;;;;;;;3.42;1.63;;;;;;;;;;5002968;28;20045;-63
2022/10/14 00:53:03;;;;;;;3.55;1.70;;;;;;;;;;5001703;28;20037;-63
2022/10/14 00:55:29;;;;;;;4.60;1.70;;;;;;;;;;5012918;28;20441;-63
2022/10/14 00:57:54;;;;;;;4.18;1.88;;;;;;;;;;5000109;28;20393;-63
2022/10/14 01:00:20;;;;;;;5.85;1.98;;;;;;;;;;4997638;28;20029;-62
2022/10/14 01:02:46;;;;;;;3.92;1.58;;;;;;;;;;5006237;28;20177;-63
2022/10/14 01:05:14;;;;;;;4.63;1.83;;;;;;;;;;5002318;28;20490;-63
2022/10/14 01:08:06;;;;;;;2.83;1.50;;;;;;;;;;5012775;28;20038;-63
2022/10/14 01:10:41;;;;;;;4.20;1.67;;;;;;;;;;5006245;28;20052;-64
2022/10/14 01:13:21;;;;;;;3.30;1.83;;;;;;;;;;5012754;28;20026;-63
2022/10/14 01:16:25;;;;;;;4.38;1.80;;;;;;;;;;5012618;28;20050;-63
2022/10/14 01:19:10;;;;;;;3.22;1.70;;;;;;;;;;5013090;28;20046;-63
2022/10/14 01:21:44;;;;;;;3.85;1.88;;;;;;;;;;5009493;28;20038;-62
2022/10/14 01:24:37;;;;;;;3.58;1.70;;;;;;;;;;5015849;28;20033;-62
2022/10/14 01:27:19;;;;;;;3.43;1.60;;;;;;;;;;5002332;28;20045;-62
2022/10/14 01:30:10;;;;;;;4.00;1.73;;;;;;;;;;5018299;28;20053;-61
2022/10/14 01:33:12;;;;;;;3.67;1.77;;;;;;;;;;5011775;28;20042;-62
2022/10/14 01:36:01;;;;;;;4.03;1.88;;;;;;;;;;5008354;28;20037;-63
2022/10/14 01:38:34;;;;;;;3.00;1.67;;;;;;;;;;4998795;28;20078;-62
2022/10/14 01:41:25;;;;;;;2.70;1.55;;;;;;;;;;5009519;28;20108;-63
2022/10/14 01:43:51;;;;;;;3.42;1.77;;;;;;;;;;5012076;28;20130;-63
2022/10/14 01:46:18;;;;;;;3.03;1.60;;;;;;;;;;5011980;28;20042;-61
2022/10/14 01:48:47;;;;;;;4.22;1.75;;;;;;;;;;5019155;28;20054;-62
2022/10/14 01:51:17;;;;;;;2.90;1.63;;;;;;;;;;5008923;28;20034;-62
2022/10/14 01:53:48;;;;;;;3.00;1.45;;;;;;;;;;5012404;28;20069;-62
2022/10/14 01:56:16;;;;;;;3.05;1.85;;;;;;;;;;5011507;28;20041;-62
2022/10/14 01:58:42;;;;;;;4.47;2.00;;;;;;;;;;5009035;28;20385;-63
2022/10/14 02:01:08;;;;;;;3.17;1.63;;;;;;;;;;5010708;28;20037;-63
2022/10/14 02:03:40;;;;;;;3.10;1.77;;;;;;;;;;4998906;28;20033;-63
2022/10/14 02:06:10;;;;;;;3.65;1.77;;;;;;;;;;5001049;28;20064;-62
2022/10/14 02:09:03;;;;;;;4.32;1.70;;;;;;;;;;5004345;28;20044;-63
2022/10/14 02:11:36;;;;;;;4.22;1.70;;;;;;;;;;5008666;28;20038;-63
2022/10/14 02:14:22;;;;;;;;;;;;;;;;;;5006196;28;20038;-63
2022/10/14 02:17:08;;;;;;;3.42;1.88;;;;;;;;;;5000681;28;20008;-62
2022/10/14 02:19:37;;;;;;;4.40;1.63;;;;;;;;;;5002336;28;20045;-63
2022/10/14 02:22:38;;;;;;;5.05;2.00;;;;;;;;;;5011175;28;20033;-63
2022/10/14 02:25:14;;;;;;;3.47;1.70;;;;;;;;;;5025794;28;20105;-62
2022/10/14 02:27:42;;;;;;;3.67;1.92;;;;;;;;;;5005185;28;20046;-63
2022/10/14 02:30:07;;;;;;;3.97;1.98;;;;;;;;;;5009740;28;20450;-62
2022/10/14 02:32:34;;;;;;;4.82;1.73;;;;;;;;;;5007839;28;20125;-62
2022/10/14 02:35:00;;;;;;;3.47;1.92;;;;;;;;;;5008583;28;20040;-63
2022/10/14 02:37:26;;;;;;;4.18;1.63;;;;;;;;;;5019069;28;20077;-63
2022/10/14 02:39:57;;;;;;;3.50;1.85;;;;;;;;;;5001182;28;20101;-63
2022/10/14 02:42:23;;;;;;;3.75;1.90;;;;;;;;;;5010742;28;20061;-62
2022/10/14 02:44:57;;;;;;;4.53;1.88;;;;;;;;;;5012561;28;20065;-62
2022/10/14 02:47:23;;;;;;;2.75;1.50;;;;;;;;;;5010617;28;20116;-62
2022/10/14 02:49:48;;;;;;;3.47;1.70;;;;;;;;;;5011638;28;20125;-62
2022/10/14 02:52:14;;;;;;;3.40;1.58;;;;;;;;;;5006527;28;20036;-63
2022/10/14 02:54:39;;;;;;;3.63;1.70;;;;;;;;;;5012258;28;20037;-63
2022/10/14 02:57:05;;;;;;;4.53;1.70;;;;;;;;;;5011269;28;20045;-63
2022/10/14 02:59:30;;;;;;;4.53;1.90;;;;;;;;;;5012680;28;20030;-62
2022/10/14 03:01:55;;;;;;;3.80;1.63;;;;;;;;;;5006544;28;20041;-63
2022/10/14 03:04:21;;;;;;;2.40;1.50;;;;;;;;;;5005605;28;20041;-62
2022/10/14 03:06:46;;;;;;;3.30;1.40;;;;;;;;;;5008469;28;20053;-63
2022/10/14 03:09:12;;;;;;;4.28;1.75;;;;;;;;;;5012985;28;20065;-62
2022/10/14 03:11:37;;;;;;;2.63;1.50;;;;;;;;;;5014802;28;20064;-63
2022/10/14 03:14:02;;;;;;;4.57;1.70;;;;;;;;;;5004273;28;20030;-62
2022/10/14 03:16:28;;;;;;;2.70;1.30;;;;;;;;;;5013774;28;20029;-63
2022/10/14 03:18:53;;;;;;;3.65;1.90;;;;;;;;;;5016445;28;20508;-63
2022/10/14 03:21:19;;;;;;;3.50;1.45;;;;;;;;;;5014277;28;20034;-63
2022/10/14 03:23:44;;;;;;;4.35;1.67;;;;;;;;;;5013467;28;20060;-62
2022/10/14 03:26:09;;;;;;;4.53;1.60;;;;;;;;;;5015949;28;20488;-63
2022/10/14 03:28:35;;;;;;;2.90;1.50;;;;;;;;;;5016162;28;20030;-63
2022/10/14 03:31:00;;;;;;;3.53;1.48;;;;;;;;;;5008934;28;20034;-63
2022/10/14 03:33:26;;;;;;;4.05;1.80;;;;;;;;;;5002984;28;20046;-63
2022/10/14 03:35:51;;;;;;;3.20;1.55;;;;;;;;;;5005417;28;20041;-62
2022/10/14 03:38:16;;;;;;;3.63;1.63;;;;;;;;;;5014465;28;20474;-62
2022/10/14 03:40:42;;;;;;;2.60;1.50;;;;;;;;;;5015120;28;20042;-62
2022/10/14 03:43:07;;;;;;;3.05;1.52;;;;;;;;;;5015804;28;20042;-62
2022/10/14 03:45:33;;;;;;;3.42;1.70;;;;;;;;;;5014743;28;20038;-63
2022/10/14 03:47:58;;;;;;;3.13;1.55;;;;;;;;;;5006478;28;20121;-63
2022/10/14 03:50:23;;;;;;;3.88;1.60;;;;;;;;;;5011372;28;20034;-63
2022/10/14 03:52:49;;;;;;;2.90;1.58;;;;;;;;;;5016043;28;20125;-63
2022/10/14 03:55:14;;;;;;;4.22;1.70;;;;;;;;;;5011566;28;20793;-63
2022/10/14 03:57:40;;;;;;;3.13;1.50;;;;;;;;;;5012261;28;20464;-62
2022/10/14 04:00:06;;;;;;;3.45;1.70;;;;;;;;;;5011694;28;20038;-63
2022/10/14 04:02:31;;;;;;;3.17;1.40;;;;;;;;;;5010631;28;20444;-63
2022/10/14 04:04:57;;;;;;;2.60;1.50;;;;;;;;;;5008117;28;20029;-62
2022/10/14 04:07:22;;;;;;;4.85;1.60;;;;;;;;;;5015116;28;20056;-63
2022/10/14 04:09:48;;;;;;;3.10;1.50;;;;;;;;;;5004731;28;20038;-63
2022/10/14 04:12:13;;;;;;;3.05;1.20;;;;;;;;;;5014499;28;20168;-62
2022/10/14 04:14:39;;;;;;;2.10;1.25;;;;;;;;;;5003565;28;20045;-63
2022/10/14 04:17:04;;;;;;;3.30;1.30;;;;;;;;;;5008506;28;20129;-62
2022/10/14 04:19:30;;;;;;;2.60;1.30;;;;;;;;;;5006672;28;20089;-63
2022/10/14 04:21:55;;;;;;;2.33;1.20;;;;;;;;;;5012428;28;20470;-63
2022/10/14 04:24:20;;;;;;;2.88;1.27;;;;;;;;;;5014621;28;20128;-63
2022/10/14 04:26:49;;;;;;;3.97;1.50;;;;;;;;;;5005395;28;20041;-63
2022/10/14 04:29:15;;;;;;;2.78;1.52;;;;;;;;;;5012889;28;20038;-62
2022/10/14 04:31:40;;;;;;;3.08;1.45;;;;;;;;;;5013918;28;20042;-62
2022/10/14 04:34:05;;;;;;;2.78;1.45;;;;;;;;;;5015013;28;20088;-63
2022/10/14 04:36:31;;;;;;;3.03;1.42;;;;;;;;;;5011734;28;20026;-63
2022/10/14 04:38:56;;;;;;;2.83;1.38;;;;;;;;;;5006325;28;20037;-63
2022/10/14 04:41:22;;;;;;;2.78;1.50;;;;;;;;;;5013140;28;20450;-63
2022/10/14 04:43:47;;;;;;;2.05;1.20;;;;;;;;;;5008925;28;20029;-63
2022/10/14 04:46:12;;;;;;;2.50;1.20;;;;;;;;;;5012622;28;20084;-62
2022/10/14 04:48:38;;;;;;;4.05;1.38;;;;;;;;;;5026241;28;20060;-63
2022/10/14 04:51:03;;;;;;;2.25;1.30;;;;;;;;;;5013602;28;20034;-63
2022/10/14 04:53:29;;;;;;;2.63;1.25;;;;;;;;;;5006691;28;20042;-63
2022/10/14 04:55:54;;;;;;;2.00;1.10;;;;;;;;;;5005324;28;20026;-63
2022/10/14 04:58:20;;;;;;;2.70;1.30;;;;;;;;;;5004939;28;20533;-62
2022/10/14 05:00:45;;;;;;;3.63;1.45;;;;;;;;;;5007805;28;20076;-62
2022/10/14 05:03:10;;;;;;;2.00;1.15;;;;;;;;;;5013068;28;20026;-62
2022/10/14 05:05:36;;;;;;;2.13;1.20;;;;;;;;;;5013575;28;20390;-63
2022/10/14 05:08:01;;;;;;;1.95;1.10;;;;;;;;;;5013775;28;20038;-62
2022/10/14 05:10:27;;;;;;;2.40;1.30;;;;;;;;;;5011465;28;20096;-62
2022/10/14 05:12:52;;;;;;;2.33;1.17;;;;;;;;;;5008279;28;20109;-63
2022/10/14 05:15:17;;;;;;;2.63;1.30;;;;;;;;;;5013869;28;20129;-62
2022/10/14 05:17:43;;;;;;;2.40;1.10;;;;;;;;;;5013530;28;20042;-63
2022/10/14 05:20:10;;;;;;;2.30;1.10;;;;;;;;;;5013395;28;20092;-63
2022/10/14 05:22:36;;;;;;;2.22;1.20;;;;;;;;;;5013471;28;20042;-62
2022/10/14 05:25:02;;;;;;;2.33;1.30;;;;;;;;;;5013980;28;20044;-62
2022/10/14 05:27:28;;;;;;;2.35;1.27;;;;;;;;;;5010879;28;20029;-63
2022/10/14 05:29:53;;;;;;;2.10;1.10;;;;;;;;;;4998334;28;20041;-63
2022/10/14 05:32:19;;;;;;;2.40;1.20;;;;;;;;;;5012116;28;20385;-63
2022/10/14 05:34:44;;;;;;;2.10;1.10;;;;;;;;;;5011086;28;20109;-63
2022/10/14 05:37:09;;;;;;;2.10;1.05;;;;;;;;;;5013506;28;20070;-63
2022/10/14 05:39:35;;;;;;;2.00;1.10;;;;;;;;;;5013084;28;20033;-63
2022/10/14 05:42:00;;;;;;;1.88;0.98;;;;;;;;;;5007633;28;20092;-63
2022/10/14 05:44:26;;;;;;;2.17;1.20;;;;;;;;;;5005029;28;20536;-63
2022/10/14 05:46:51;;;;;;;2.45;1.42;;;;;;;;;;4999078;28;20586;-62
2022/10/14 05:49:16;;;;;;;2.25;1.17;;;;;;;;;;4996168;28;20041;-63
2022/10/14 05:51:42;;;;;;;2.85;1.27;;;;;;;;;;5007092;28;20639;-62
2022/10/14 05:54:07;;;;;;;2.38;1.10;;;;;;;;;;5012323;28;20401;-63
2022/10/14 05:56:33;;;;;;;2.00;1.00;;;;;;;;;;5012397;28;20065;-63
2022/10/14 05:58:58;;;;;;;1.90;1.08;;;;;;;;;;5012001;28;20057;-63
2022/10/14 06:01:23;;;;;;;1.75;0.90;;;;;;;;;;5012102;28;20033;-62
2022/10/14 06:03:50;;;;;;;1.92;1.00;;;;;;;;;;5013284;28;20037;-63
2022/10/14 06:06:16;;;;;;;2.35;1.13;;;;;;;;;;5011811;28;20493;-63
2022/10/14 06:08:41;;;;;;;2.10;1.10;;;;;;;;;;5005731;28;20041;-63
2022/10/14 06:11:07;;;;;;;1.92;1.10;;;;;;;;;;5012277;28;20090;-63
2022/10/14 06:13:34;;;;;;;2.28;0.90;;;;;;;;;;5012449;28;20135;-63
2022/10/14 06:16:04;;;;;;;2.08;1.02;;;;;;;;;;5006456;28;20057;-63
2022/10/14 06:18:30;;;;;;;2.10;1.02;;;;;;;;;;5012961;28;20044;-63
2022/10/14 06:20:55;;;;;;;2.15;1.20;;;;;;;;;;5012121;28;20108;-62
2022/10/14 06:23:21;;;;;;;1.73;1.00;;;;;;;;;;5012399;28;20080;-62
2022/10/14 06:25:46;;;;;;;1.77;0.90;;;;;;;;;;5006605;28;20034;-63
2022/10/14 06:28:11;;;;;;;2.65;1.05;;;;;;;;;;5012928;28;20101;-61
2022/10/14 06:30:37;;;;;;;1.77;0.98;;;;;;;;;;5008817;28;20815;-63
2022/10/14 06:33:02;;;;;;;2.00;1.10;;;;;;;;;;5011726;28;20113;-62
2022/10/14 06:35:28;;;;;;;1.83;1.00;;;;;;;;;;5005219;28;20065;-62
2022/10/14 06:37:53;;;;;;;1.80;0.98;;;;;;;;;;5012594;28;20038;-69
2022/10/14 06:40:18;;;;;;;1.70;0.82;;;;;;;;;;5007713;28;20034;-67
2022/10/14 06:42:44;;;;;;;2.53;1.10;;;;;;;;;;5012720;28;20042;-67
2022/10/14 06:45:09;;;;;;;1.80;1.00;;;;;;;;;;5008380;28;20065;-68
2022/10/14 06:47:35;;;;;;;5.72;0.98;;;;;;;;;;5011684;28;20029;-68
2022/10/14 06:50:00;;;;;;;2.38;1.00;;;;;;;;;;5009910;28;20038;-68
2022/10/14 06:52:26;;;;;;;1.77;1.00;;;;;;;;;;5011786;28;20029;-66
2022/10/14 06:54:51;;;;;;;2.15;1.02;;;;;;;;;;5012590;28;20040;-66
2022/10/14 06:57:16;;;;;;;2.22;1.00;;;;;;;;;;5011382;28;20128;-68
2022/10/14 06:59:42;;;;;;;2.15;0.95;;;;;;;;;;5008007;28;20032;-67
2022/10/14 07:02:09;;;;;;;8.07;1.10;;;;;;;;;;5009086;28;20064;-69
2022/10/14 07:04:34;;;;;;;3.50;1.20;;;;;;;;;;5012088;28;20121;-70
2022/10/14 07:06:59;;;;;;;9.02;1.13;;;;;;;;;;5012163;28;20548;-73
2022/10/14 07:09:25;;;;;;;1.60;0.80;;;;;;;;;;5004440;28;20096;-73
2022/10/14 07:11:50;;;;;;;3.55;1.00;;;;;;;;;;5003091;28;20117;-70
2022/10/14 07:14:16;;;;;;;1.60;1.00;;;;;;;;;;5002056;28;20471;-65
2022/10/14 07:16:44;;;;;;;1.90;0.90;;;;;;;;;;5008582;28;20061;-72
2022/10/14 07:19:10;;;;;;;23.42;1.20;;;;;;;;;;4993654;28;20097;-70
2022/10/14 07:21:36;;;;;;;4.20;1.20;;;;;;;;;;4994695;28;20034;-71
2022/10/14 07:24:01;;;;;;;2.75;1.00;;;;;;;;;;5012490;28;20374;-75
2022/10/14 07:26:30;;;;;;;1.95;0.90;;;;;;;;;;5010319;28;20485;-63
2022/10/14 07:28:55;;;;;;;1.55;0.82;;;;;;;;;;4999686;28;20042;-63
2022/10/14 07:31:21;;;;;;;2.60;1.05;;;;;;;;;;4991691;28;20033;-66
2022/10/14 07:33:46;;;;;;;2.58;1.63;;;;;;;;;;5007872;28;20478;-66
2022/10/14 07:36:14;;;;;;;2.20;1.08;;;;;;;;;;5001548;28;20034;-68
2022/10/14 07:38:40;;;;;;;1.63;0.85;;;;;;;;;;5008675;28;20037;-70
2022/10/14 07:41:15;;;;;;;3.50;0.95;;;;;;;;;;5005603;28;20038;-72
2022/10/14 07:43:42;;;;;;;3.10;1.20;;;;;;;;;;5001577;28;20049;-76
2022/10/14 07:46:07;;;;;;;2.92;1.10;;;;;;;;;;5009261;28;20038;-75
2022/10/14 07:48:33;;;;;;;2.03;1.00;;;;;;;;;;5011793;28;20828;-65
2022/10/14 07:50:59;;;;;;;2.60;1.20;;;;;;;;;;5006605;28;20065;-65
2022/10/14 07:53:26;;;;;;;2.67;1.10;;;;;;;;;;5005574;28;20441;-66
2022/10/14 07:55:51;;;;;;;2.47;1.00;;;;;;;;;;5005359;28;20053;-67
2022/10/14 07:58:22;;;;;;;3.95;1.15;;;;;;;;;;5006523;28;20458;-67
2022/10/14 08:00:50;;;;;;;2.97;1.23;;;;;;;;;;4998698;28;20046;-64
2022/10/14 08:03:18;;;;;;;4.57;1.30;;;;;;;;;;5005299;28;20037;-66
2022/10/14 08:05:44;;;;;;;2.03;1.00;;;;;;;;;;5005346;28;20081;-67
2022/10/14 08:08:10;;;;;;;2.67;1.10;;;;;;;;;;5002426;28;20062;-67
2022/10/14 08:10:35;;;;;;;2.42;1.05;;;;;;;;;;5008419;28;20107;-66
2022/10/14 08:13:01;;;;;;;3.03;1.10;;;;;;;;;;5014960;28;20470;-66
2022/10/14 08:15:28;;;;;;;3.17;1.20;;;;;;;;;;5014218;28;20096;-66
2022/10/14 08:17:54;;;;;;;3.22;1.40;;;;;;;;;;5013966;28;20041;-66
2022/10/14 08:20:20;;;;;;;3.03;1.10;;;;;;;;;;5004986;28;20038;-67
2022/10/14 08:22:45;;;;;;;2.22;1.10;;;;;;;;;;5010779;28;20132;-66
2022/10/14 08:25:10;;;;;;;3.42;1.15;;;;;;;;;;5014684;28;20097;-67
2022/10/14 08:27:36;;;;;;;1.92;1.00;;;;;;;;;;5014940;28;20971;-66
2022/10/14 08:30:02;;;;;;;2.25;1.00;;;;;;;;;;5014741;28;20038;-65
2022/10/14 08:32:28;;;;;;;2.67;1.00;;;;;;;;;;5002902;28;20117;-66
2022/10/14 08:34:54;;;;;;;4.22;1.00;;;;;;;;;;5002684;28;20157;-67
2022/10/14 08:37:20;;;;;;;3.20;1.25;;;;;;;;;;5001683;28;20046;-66
2022/10/14 08:39:45;;;;;;;5.93;1.63;;;;;;;;;;5002424;28;20045;-67
2022/10/14 08:42:30;;;;;;;6.13;1.40;;;;;;;;;;5006748;28;20393;-65
2022/10/14 08:45:16;;;;;;;2.30;0.98;;;;;;;;;;5011692;28;20080;-69
2022/10/14 08:47:45;;;;;;;3.83;1.00;;;;;;;;;;5004079;28;20113;-70
2022/10/14 08:50:16;;;;;;;4.07;1.20;;;;;;;;;;5005840;28;20398;-64
2022/10/14 08:52:59;;;;;;;4.00;1.25;;;;;;;;;;5001912;28;20080;-67
2022/10/14 08:55:32;;;;;;;2.33;1.00;;;;;;;;;;5003240;28;20117;-62
2022/10/14 08:58:12;;;;;;;6.00;1.17;;;;;;;;;;5009796;28;20409;-63
2022/10/14 09:00:41;;;;;;;3.30;1.40;;;;;;;;;;5008539;28;20115;-64
2022/10/14 09:03:15;;;;;;;3.35;1.42;;;;;;;;;;5007275;28;20500;-63
2022/10/14 09:05:41;;;;;;;5.22;1.38;;;;;;;;;;4996347;28;22270;-63
2022/10/14 09:08:13;;;;;;;4.22;1.30;;;;;;;;;;5000714;28;20049;-64
2022/10/14 09:10:40;;;;;;;3.45;1.40;;;;;;;;;;5000052;28;20038;-64
2022/10/14 09:13:18;;;;;;;6.50;1.30;;;;;;;;;;5000135;28;20055;-63
2022/10/14 09:15:57;;;;;;;2.78;1.30;;;;;;;;;;5013012;28;20038;-62
2022/10/14 09:18:31;;;;;;;3.85;1.17;;;;;;;;;;5003418;28;20061;-63
2022/10/14 09:20:57;;;;;;;2.28;1.13;;;;;;;;;;5003023;28;20042;-64
2022/10/14 09:23:24;;;;;;;4.03;1.00;;;;;;;;;;5017342;28;20100;-64
2022/10/14 09:26:19;;;;;;;2.90;1.30;;;;;;;;;;5002729;28;20045;-62
2022/10/14 09:28:44;;;;;;;3.55;1.20;;;;;;;;;;5003830;28;20061;-64
2022/10/14 09:31:12;;;;;;;3.63;1.17;;;;;;;;;;5008330;28;20046;-66
2022/10/14 09:33:38;;;;;;;2.80;1.20;;;;;;;;;;5003837;28;20515;-69
2022/10/14 09:36:05;;;;;;;2.78;0.93;;;;;;;;;;5007164;28;20878;-68
2022/10/14 09:38:31;;;;;;;2.33;1.08;;;;;;;;;;4998859;28;20050;-68
2022/10/14 09:40:58;;;;;;;3.65;1.10;;;;;;;;;;5005949;28;20030;-68
2022/10/14 09:43:24;;;;;;;2.78;1.30;;;;;;;;;;5001183;28;20038;-68
2022/10/14 09:45:56;;;;;;;2.03;1.00;;;;;;;;;;5004816;28;20048;-65
2022/10/14 09:48:47;;;;;;;2.20;0.98;;;;;;;;;;5003146;28;20041;-66
2022/10/14 09:51:23;;;;;;;1.70;0.90;;;;;;;;;;5006183;28;20049;-68
2022/10/14 09:53:52;;;;;;;2.92;1.15;;;;;;;;;;5007940;28;20037;-69
2022/10/14 09:56:33;;;;;;;3.53;1.00;;;;;;;;;;5005690;28;20041;-68
2022/10/14 09:59:00;;;;;;;2.05;0.95;;;;;;;;;;5006514;28;20030;-68
2022/10/14 10:01:27;;;;;;;2.15;0.93;;;;;;;;;;4999544;28;20104;-68
2022/10/14 10:03:54;;;;;;;6.82;1.73;;;;;;;;;;4998941;28;20076;-67
2022/10/14 10:06:25;;;;;;;3.35;1.63;;;;;;;;;;4989878;28;20050;-68
2022/10/14 10:09:00;;;;;;;3.38;1.40;;;;;;;;;;5013287;28;20033;-69
2022/10/14 10:11:36;;;;;;;2.10;1.10;;;;;;;;;;4993518;28;20068;-68
2022/10/14 10:14:23;;;;;;;2.58;1.30;;;;;;;;;;5008681;28;20041;-69
2022/10/14 10:17:07;;;;;;;2.58;1.23;;;;;;;;;;5007397;28;20042;-67
2022/10/14 10:19:33;;;;;;;2.15;1.10;;;;;;;;;;4998906;28;20474;-68
2022/10/14 10:22:21;;;;;;;6.90;1.30;;;;;;;;;;4997780;28;20053;-67
2022/10/14 10:24:49;;;;;;;3.10;1.00;;;;;;;;;;4993992;28;20038;-67
2022/10/14 10:27:25;;;;;;;4.43;1.40;;;;;;;;;;5000630;28;20361;-66
2022/10/14 10:29:50;;;;;;;2.95;1.38;;;;;;;;;;5002767;28;20068;-68
2022/10/14 10:32:32;;;;;;;2.72;1.35;;;;;;;;;;5000892;28;20057;-67
2022/10/14 10:35:28;;;;;;;4.28;1.20;;;;;;;;;;5006119;28;20091;-72
2022/10/14 10:38:08;;;;;;;4.15;1.23;;;;;;;;;;5020790;28;20041;-67
2022/10/14 10:41:09;;;;;;;4.93;1.30;;;;;;;;;;4998721;28;20528;-67
2022/10/14 10:44:12;;;;;;;2.20;1.00;;;;;;;;;;4998346;28;20068;-67
2022/10/14 10:46:50;;;;;;;7.38;1.42;;;;;;;;;;4998755;28;20049;-67
2022/10/14 10:49:35;;;;;;;5.22;1.10;;;;;;;;;;4991995;28;20778;-67
2022/10/14 10:52:36;;;;;;;7.70;1.40;;;;;;;;;;4996409;28;20800;-67
2022/10/14 10:55:28;;;;;;;3.33;1.25;;;;;;;;;;4994747;28;20033;-67
2022/10/14 10:58:03;;;;;;;2.35;1.08;;;;;;;;;;4990774;28;20386;-67
2022/10/14 11:00:30;;;;;;;3.03;1.20;;;;;;;;;;5008717;28;20022;-67
2022/10/14 11:03:10;;;;;;;4.20;1.30;;;;;;;;;;5009764;28;20037;-67
2022/10/14 11:05:43;;;;;;;4.55;1.23;;;;;;;;;;5007470;28;20050;-67
2022/10/14 11:14:24;;;;;;;2.60;1.42;;;;;;;;;;5005981;28;20548;-66
2022/10/14 11:17:13;;;;;;;5.22;1.40;;;;;;;;;;5008300;28;20164;-66
2022/10/14 11:20:11;;;;;;;2.83;1.38;;;;;;;;;;4991796;28;20064;-66
2022/10/14 11:22:45;;;;;;;1.92;1.15;;;;;;;;;;5009589;28;20088;-65
2022/10/14 11:25:22;;;;;;;2.58;1.20;;;;;;;;;;5013191;28;20120;-65
2022/10/14 11:28:09;;;;;;;3.38;1.40;;;;;;;;;;5014917;28;20033;-66
2022/10/14 11:30:38;;;;;;;2.70;1.40;;;;;;;;;;5012879;28;20069;-67
2022/10/14 11:33:22;;;;;;;3.00;1.48;;;;;;;;;;5002348;28;20033;-66
2022/10/14 11:35:53;;;;;;;3.63;1.38;;;;;;;;;;5000081;28;20470;-67
2022/10/14 11:38:40;;;;;;;2.33;1.20;;;;;;;;;;5009423;28;20030;-67
2022/10/14 11:41:46;;;;;;;3.28;1.40;;;;;;;;;;5012541;28;20105;-66
2022/10/14 11:44:24;;;;;;;3.15;1.23;;;;;;;;;;4984805;28;20486;-66
2022/10/14 11:46:53;;;;;;;2.72;1.40;;;;;;;;;;4999779;28;20448;-66
2022/10/14 11:49:29;;;;;;;4.32;1.25;;;;;;;;;;5011866;28;20030;-65
2022/10/14 11:51:59;;;;;;;4.10;1.40;;;;;;;;;;5010989;28;20391;-66
2022/10/14 11:54:39;;;;;;;3.33;1.30;;;;;;;;;;5000230;28;20120;-67
2022/10/14 11:57:09;;;;;;;9.18;1.50;;;;;;;;;;5002231;28;20045;-67
2022/10/14 12:03:22;;;;;;;4.20;1.30;;;;;;;;;;5011706;28;20040;-66
2022/10/14 12:06:04;;;;;;;5.97;1.77;;;;;;;;;;5002076;28;20053;-66
2022/10/14 12:08:33;;;;;;;5.45;1.50;;;;;;;;;;5020404;28;20030;-66
2022/10/14 12:11:04;;;;;;;3.65;1.42;;;;;;;;;;5009297;28;20041;-66
2022/10/14 12:13:41;;;;;;;3.05;1.73;;;;;;;;;;5024093;28;20131;-66
2022/10/14 12:16:12;;;;;;;2.15;1.15;;;;;;;;;;5027006;28;20053;-66
2022/10/14 12:18:37;;;;;;;2.80;1.27;;;;;;;;;;5001917;28;20037;-66
2022/10/14 12:21:14;;;;;;;3.30;1.20;;;;;;;;;;5011351;28;20492;-66
2022/10/14 12:23:56;;;;;;;4.15;1.08;;;;;;;;;;5012407;28;20042;-66
2022/10/14 12:26:22;;;;;;;2.33;1.40;;;;;;;;;;5012222;28;20041;-66
2022/10/14 12:28:48;;;;;;;2.15;1.10;;;;;;;;;;5012143;28;20042;-66
2022/10/14 12:31:21;;;;;;;4.25;1.40;;;;;;;;;;5010761;28;20056;-67
2022/10/14 12:34:14;;;;;;;3.58;1.30;;;;;;;;;;5010625;28;20095;-66
2022/10/14 12:36:42;;;;;;;2.15;1.10;;;;;;;;;;5004782;28;20108;-67
2022/10/14 12:39:16;;;;;;;3.75;1.10;;;;;;;;;;5011789;28;20474;-68
2022/10/14 12:41:49;;;;;;;2.35;1.10;;;;;;;;;;5011984;28;20060;-70
2022/10/14 12:44:17;;;;;;;3.28;1.13;;;;;;;;;;5010766;28;20038;-70
2022/10/14 12:46:47;;;;;;;3.15;1.25;;;;;;;;;;5006377;28;20042;-67
2022/10/14 12:49:29;;;;;;;5.57;1.40;;;;;;;;;;5012384;28;20536;-69
2022/10/14 12:52:02;;;;;;;2.35;1.10;;;;;;;;;;5009821;28;20497;-72
2022/10/14 12:54:28;;;;;;;;;;;;;;;;;;5010229;28;20030;-71
2022/10/14 12:57:00;;;;;;;3.25;1.17;;;;;;;;;;5009301;28;19929;-68
2022/10/14 12:59:31;;;;;;;1.77;1.05;;;;;;;;;;5009136;28;20041;-66
2022/10/14 13:02:03;;;;;;;6.05;1.20;;;;;;;;;;5007916;28;20042;-65
2022/10/14 13:04:29;;;;;;;3.45;1.20;;;;;;;;;;5025165;28;20108;-64
2022/10/14 13:07:28;;;;;;;3.45;1.20;;;;;;;;;;5009264;28;20450;-63
2022/10/14 13:09:58;;;;;;;3.05;1.10;;;;;;;;;;5010494;28;20388;-67
2022/10/14 13:12:24;;;;;;;3.95;1.30;;;;;;;;;;5010402;28;20117;-69
2022/10/14 13:15:00;;;;;;;2.10;1.00;;;;;;;;;;5011639;28;20541;-65
2022/10/14 13:17:45;;;;;;;3.22;1.00;;;;;;;;;;5017465;28;20095;-67
2022/10/14 13:20:32;;;;;;;4.20;1.00;;;;;;;;;;5003264;28;20473;-68
2022/10/14 13:23:35;;;;;;;7.63;1.23;;;;;;;;;;5010954;28;20481;-69
2022/10/14 13:26:12;;;;;;;3.38;1.30;;;;;;;;;;5000696;28;20029;-68
2022/10/14 13:28:48;;;;;;;3.22;1.20;;;;;;;;;;5007268;28;20492;-68
2022/10/14 13:31:35;;;;;;;2.10;1.10;;;;;;;;;;5022396;28;20444;-70
2022/10/14 13:34:10;;;;;;;2.05;1.15;;;;;;;;;;5006016;28;20136;-70
2022/10/14 13:36:59;;;;;;;3.30;1.20;;;;;;;;;;5003864;28;20038;-67
2022/10/14 13:39:24;;;;;;;3.25;1.20;;;;;;;;;;5002146;28;20042;-69
2022/10/14 13:41:50;;;;;;;3.20;1.30;;;;;;;;;;4993975;28;20046;-71
2022/10/14 13:44:20;;;;;;;3.15;1.40;;;;;;;;;;4994490;28;20529;-71
2022/10/14 13:46:47;;;;;;;4.72;1.63;;;;;;;;;;5024364;28;20407;-70
2022/10/14 13:49:15;;;;;;;3.10;1.27;;;;;;;;;;5007892;28;20116;-69
2022/10/14 13:51:47;;;;;;;2.83;1.40;;;;;;;;;;4999982;28;20381;-64
2022/10/14 13:54:18;;;;;;;3.03;1.10;;;;;;;;;;5008273;28;20037;-64
2022/10/14 13:56:56;;;;;;;2.95;1.30;;;;;;;;;;5009571;28;20042;-65
2022/10/14 13:59:23;;;;;;;2.50;1.20;;;;;;;;;;5008286;28;20100;-70
2022/10/14 14:01:49;;;;;;;2.85;1.17;;;;;;;;;;5007618;28;20084;-74
2022/10/14 14:04:27;;;;;;;2.90;1.30;;;;;;;;;;5020960;28;20029;-71
2022/10/14 14:06:53;;;;;;;3.97;1.40;;;;;;;;;;5007915;28;20300;-72
2022/10/14 14:09:26;;;;;;;5.40;1.60;;;;;;;;;;4999852;28;20064;-65
2022/10/14 14:11:54;;;;;;;3.35;1.50;;;;;;;;;;5024915;28;20486;-69
2022/10/14 14:14:40;;;;;;;2.58;1.20;;;;;;;;;;5010406;28;20056;-65
2022/10/14 14:17:11;;;;;;;5.35;1.40;;;;;;;;;;5008439;28;20037;-68
2022/10/14 14:19:37;;;;;;;4.22;1.40;;;;;;;;;;4993735;28;20069;-69
2022/10/14 14:22:27;;;;;;;3.35;1.25;;;;;;;;;;5008757;28;20030;-66
2022/10/14 14:25:18;;;;;;;2.63;1.20;;;;;;;;;;5009755;28;20089;-69
2022/10/14 14:27:52;;;;;;;3.38;1.40;;;;;;;;;;4998424;28;20038;-68
2022/10/14 14:30:32;;;;;;;2.85;1.23;;;;;;;;;;4992022;28;20215;-69
2022/10/14 14:33:00;;;;;;;3.20;1.50;;;;;;;;;;5001510;28;20449;-65
2022/10/14 14:35:26;;;;;;;3.60;1.42;;;;;;;;;;4999597;28;20038;-68
2022/10/14 14:37:51;;;;;;;3.40;1.50;;;;;;;;;;5007733;28;20091;-68
2022/10/14 14:40:21;;;;;;;2.70;1.30;;;;;;;;;;5009048;28;20034;-68
2022/10/14 14:42:51;;;;;;;3.20;1.58;;;;;;;;;;5008711;28;20054;-69
2022/10/14 14:45:24;;;;;;;4.32;1.20;;;;;;;;;;4996023;28;20536;-69
2022/10/14 14:47:52;;;;;;;3.35;1.50;;;;;;;;;;5005323;28;20034;-65
2022/10/14 14:50:42;;;;;;;2.65;1.42;;;;;;;;;;5005006;28;20198;-69
2022/10/14 14:53:20;;;;;;;5.30;1.33;;;;;;;;;;5006180;28;20500;-62
2022/10/14 14:55:54;;;;;;;3.33;1.40;;;;;;;;;;5009055;28;20136;-66
2022/10/14 14:58:51;;;;;;;2.97;1.38;;;;;;;;;;5008889;28;20038;-65
2022/10/14 15:01:27;;;;;;;2.53;1.30;;;;;;;;;;5016452;28;20038;-65
2022/10/14 15:03:56;;;;;;;3.72;1.27;;;;;;;;;;5012378;28;20029;-66
2022/10/14 15:06:23;;;;;;;3.17;1.20;;;;;;;;;;5008569;28;20406;-64
2022/10/14 15:08:50;;;;;;;7.13;1.52;;;;;;;;;;5028692;28;20033;-69
2022/10/14 15:11:16;;;;;;;5.78;1.50;;;;;;;;;;5012331;28;20045;-68
2022/10/14 15:13:49;;;;;;;4.82;1.38;;;;;;;;;;5007750;28;20033;-69
2022/10/14 15:16:42;;;;;;;5.22;1.30;;;;;;;;;;5011273;28;20038;-67